This is the latest recevied weather packets stored in our database for station/object KQ4HEI. If no packets are shown the sender has not sent any weather packets the latest 10 day(s).
| Time | Temp. | Humidity | Pressure | Rain* | Wind** | Luminosity | Snow |
|---|---|---|---|---|---|---|---|
| 1777764693 | 22.22° C | 59% | 1010.9 hPa | 0 mm | - | - | - |
| 1777764092 | 23.33° C | 56% | 1010.9 hPa | 0 mm | - | - | - |
| 1777763492 | 23.89° C | 55% | 1010.9 hPa | 0 mm | - | - | - |
| 1777762894 | 23.89° C | 55% | 1010.8 hPa | 0 mm | - | - | - |
| 1777762292 | 24.44° C | 55% | 1010.8 hPa | 0 mm | - | - | - |
| 1777761692 | 25.56° C | 51% | 1010.8 hPa | 0 mm | - | - | - |
| 1777761092 | 25.56° C | 53% | 1010.7 hPa | 0 mm | - | - | - |
| 1777760492 | 25° C | 55% | 1010.7 hPa | 0 mm | - | - | - |
| 1777759892 | 25° C | 55% | 1010.6 hPa | 0 mm | - | - | - |
| 1777759292 | 25° C | 54% | 1010.6 hPa | 0 mm | - | - | - |
| 1777758692 | 25° C | 54% | 1010.6 hPa | 0 mm | - | - | - |
| 1777758093 | 23.33° C | 58% | 1010.6 hPa | 0 mm | - | - | - |
| 1777757492 | 23.33° C | 59% | 1010.6 hPa | 0 mm | - | - | - |
| 1777756893 | 23.33° C | 58% | 1010.5 hPa | 0 mm | - | - | - |
| 1777756292 | 24.44° C | 56% | 1010.6 hPa | 0 mm | - | - | - |
| 1777755692 | 23.33° C | 62% | 1010.8 hPa | 0 mm | - | - | - |
| 1777755092 | 22.78° C | 64% | 1010.7 hPa | 0 mm | - | - | - |
| 1777754492 | 21.67° C | 68% | 1010.6 hPa | 0 mm | - | - | - |
| 1777753892 | 22.78° C | 66% | 1010.7 hPa | 0 mm | - | - | - |
| 1777753292 | 21.11° C | 72% | 1010.9 hPa | 0 mm | - | - | - |
| 1777752692 | 21.67° C | 70% | 1011 hPa | 0 mm | - | - | - |
| 1777752092 | 21.11° C | 73% | 1011 hPa | 0 mm | - | - | - |
| 1777751492 | 20.56° C | 74% | 1011 hPa | 0 mm | - | - | - |
| 1777750892 | 21.11° C | 73% | 1011 hPa | 0 mm | - | - | - |
| 1777750292 | 21.67° C | 72% | 1011.4 hPa | 0 mm | - | - | - |
* Rain latest hour (hover to see other rain measurements)
** Current wind speed in m/s (hover to see current wind gust speed)